createdAt,value
2022-08-03T00:02:25.000Z,16.86
2022-08-03T00:07:24.000Z,16.34
2022-08-03T00:12:24.000Z,16.05
2022-08-03T00:17:25.000Z,17.43
2022-08-03T00:22:25.000Z,18
2022-08-03T00:27:24.000Z,18
2022-08-03T00:32:25.000Z,16.99
2022-08-03T00:37:24.000Z,16.72
2022-08-03T00:42:24.000Z,16.99
2022-08-03T00:47:24.000Z,16.49
2022-08-03T00:52:25.000Z,17.3
2022-08-03T00:57:24.000Z,16.47
2022-08-03T01:02:24.000Z,21.58
2022-08-03T01:07:25.000Z,16.8
2022-08-03T01:12:24.000Z,16.8
2022-08-03T01:17:24.000Z,17.17
2022-08-03T01:22:24.000Z,15.95
2022-08-03T01:27:25.000Z,16.61
2022-08-03T01:32:24.000Z,15.87
2022-08-03T01:42:24.000Z,16.66
2022-08-03T01:47:25.000Z,15.69
2022-08-03T01:52:24.000Z,15.55
2022-08-03T01:57:24.000Z,15.23
2022-08-03T02:02:24.000Z,15.66
2022-08-03T02:07:24.000Z,16.46
2022-08-03T02:12:24.000Z,16.05
2022-08-03T02:17:24.000Z,15.82
2022-08-03T02:22:24.000Z,15.92
2022-08-03T02:27:24.000Z,15.87
2022-08-03T02:32:25.000Z,15.96
2022-08-03T02:37:25.000Z,15.41
2022-08-03T02:42:24.000Z,15.41
2022-08-03T02:47:24.000Z,15.15
2022-08-03T02:52:25.000Z,15.17
2022-08-03T02:57:25.000Z,15.41
2022-08-03T03:02:24.000Z,15.43
2022-08-03T03:07:25.000Z,15.43
2022-08-03T03:12:24.000Z,15.74
2022-08-03T03:17:24.000Z,15.57
2022-08-03T03:22:24.000Z,15.57
2022-08-03T03:27:24.000Z,15.56
2022-08-03T03:32:24.000Z,15.4
2022-08-03T03:42:25.000Z,15.22
2022-08-03T03:47:24.000Z,15.36
2022-08-03T03:52:25.000Z,15.37
2022-08-03T03:57:24.000Z,15
2022-08-03T04:02:24.000Z,15
2022-08-03T04:07:24.000Z,15.09
2022-08-03T04:12:25.000Z,14.06
2022-08-03T04:17:24.000Z,13.75
2022-08-03T04:22:24.000Z,14.06
2022-08-03T04:27:25.000Z,13.55
2022-08-03T04:32:25.000Z,13.77
2022-08-03T04:37:24.000Z,12.64
2022-08-03T04:42:24.000Z,13.49
2022-08-03T04:47:24.000Z,13.49
2022-08-03T04:52:24.000Z,13.4
2022-08-03T05:02:24.000Z,12.33
2022-08-03T05:07:24.000Z,12.35
2022-08-03T05:12:24.000Z,14.53
2022-08-03T05:17:24.000Z,12.09
2022-08-03T05:22:24.000Z,15.33
2022-08-03T05:27:24.000Z,14.13
2022-08-03T05:32:24.000Z,14.13
2022-08-03T05:37:24.000Z,12.57
2022-08-03T05:47:25.000Z,14.41
2022-08-03T05:52:24.000Z,13.31
2022-08-03T05:57:25.000Z,12.89
2022-08-03T06:02:24.000Z,13.57
2022-08-03T06:07:25.000Z,13.21
2022-08-03T06:22:24.000Z,14.7
2022-08-03T06:27:24.000Z,13.74
2022-08-03T06:32:24.000Z,13.67
2022-08-03T06:37:24.000Z,12.86
2022-08-03T06:42:24.000Z,12.13
2022-08-03T06:47:24.000Z,13.04
2022-08-03T06:52:25.000Z,13.25
2022-08-03T06:57:25.000Z,12.69
2022-08-03T07:02:25.000Z,12.52
2022-08-03T07:07:24.000Z,12.52
2022-08-03T07:12:25.000Z,11.72
2022-08-03T07:22:25.000Z,10.87
2022-08-03T07:27:24.000Z,10.11
2022-08-03T07:32:24.000Z,8.76
2022-08-03T07:37:25.000Z,8.12
2022-08-03T07:42:24.000Z,6.88
2022-08-03T07:47:25.000Z,7.3
2022-08-03T07:52:25.000Z,7.3
2022-08-03T07:57:24.000Z,8.38
2022-08-03T08:02:24.000Z,7.89
2022-08-03T08:07:24.000Z,7.75
2022-08-03T08:12:24.000Z,7.64
2022-08-03T08:17:24.000Z,7.79
2022-08-03T08:22:24.000Z,7.79
2022-08-03T08:27:24.000Z,7.81
2022-08-03T08:32:24.000Z,7.45
2022-08-03T08:37:24.000Z,7.44
2022-08-03T08:42:24.000Z,9.06
2022-08-03T08:47:24.000Z,8.96
2022-08-03T08:52:24.000Z,7.52
2022-08-03T08:57:24.000Z,7.47
2022-08-03T09:02:25.000Z,7.47
2022-08-03T09:07:24.000Z,7.56
2022-08-03T09:12:25.000Z,7.46
2022-08-03T09:17:24.000Z,7.51
2022-08-03T09:22:25.000Z,7.29
2022-08-03T09:27:24.000Z,8.17
2022-08-03T09:32:24.000Z,7.22
2022-08-03T09:37:24.000Z,7.11
2022-08-03T09:42:24.000Z,7.2
2022-08-03T09:47:24.000Z,7.2
2022-08-03T09:52:24.000Z,7.39
2022-08-03T09:57:24.000Z,7.57
2022-08-03T10:02:24.000Z,7.89
2022-08-03T10:07:24.000Z,7.35
2022-08-03T10:12:24.000Z,7.55
2022-08-03T10:22:25.000Z,8.1
2022-08-03T10:27:24.000Z,8.1
2022-08-03T10:32:25.000Z,7.87
2022-08-03T10:37:24.000Z,7.54
2022-08-03T10:42:25.000Z,7.49
2022-08-03T10:47:24.000Z,7.33
2022-08-03T10:52:24.000Z,7.48
2022-08-03T10:57:24.000Z,8.11
2022-08-03T11:02:25.000Z,7.7
2022-08-03T11:07:25.000Z,7.7
2022-08-03T11:12:25.000Z,7.45
2022-08-03T11:17:24.000Z,7.59
2022-08-03T11:22:24.000Z,7.71
2022-08-03T11:27:24.000Z,7.97
2022-08-03T11:32:24.000Z,8.66
2022-08-03T11:37:24.000Z,8.27
2022-08-03T11:42:24.000Z,8.27
2022-08-03T11:47:24.000Z,8.68
2022-08-03T11:52:24.000Z,8.31
2022-08-03T11:57:25.000Z,8.25
2022-08-03T12:07:24.000Z,7.97
2022-08-03T12:12:24.000Z,8.79
2022-08-03T12:17:24.000Z,8.14
2022-08-03T12:22:25.000Z,8.39
2022-08-03T12:27:25.000Z,8.4
2022-08-03T12:32:25.000Z,8.4
2022-08-03T12:37:24.000Z,10.43
2022-08-03T12:42:24.000Z,8.34
2022-08-03T12:47:25.000Z,7.97
2022-08-03T12:52:24.000Z,8.59
2022-08-03T12:57:24.000Z,7.93
2022-08-03T13:02:24.000Z,8.05
2022-08-03T13:07:24.000Z,7.61
2022-08-03T13:12:24.000Z,7.61
2022-08-03T13:17:24.000Z,8.49
2022-08-03T13:22:24.000Z,8.44
2022-08-03T13:27:24.000Z,9.21
2022-08-03T13:32:25.000Z,8.94
2022-08-03T13:37:24.000Z,8.97
2022-08-03T13:42:25.000Z,9.16
2022-08-03T13:47:24.000Z,9.57
2022-08-03T13:52:25.000Z,9.52
2022-08-03T13:57:25.000Z,9.52
2022-08-03T14:02:25.000Z,9.51
2022-08-03T14:07:25.000Z,8.86
2022-08-03T14:12:24.000Z,9.81
2022-08-03T14:17:24.000Z,9.42
2022-08-03T14:22:25.000Z,9.11
2022-08-03T14:27:25.000Z,9.19
2022-08-03T14:32:24.000Z,9.7
2022-08-03T14:37:24.000Z,9.95
2022-08-03T14:42:24.000Z,9.95
2022-08-03T14:52:24.000Z,9.04
2022-08-03T14:57:24.000Z,8.91
2022-08-03T15:02:24.000Z,8.55
2022-08-03T15:07:25.000Z,8.84
2022-08-03T15:12:24.000Z,8.8
2022-08-03T15:17:24.000Z,8.65
2022-08-03T15:22:24.000Z,8.66
2022-08-03T15:27:24.000Z,8.8
2022-08-03T15:32:24.000Z,8.22
2022-08-03T15:37:24.000Z,8.34
2022-08-03T15:42:25.000Z,8.89
2022-08-03T15:47:24.000Z,8.47
2022-08-03T15:52:24.000Z,8.99
2022-08-03T15:57:24.000Z,8.75
2022-08-03T16:07:24.000Z,9.37
2022-08-03T16:17:24.000Z,11.15
2022-08-03T16:22:24.000Z,10.94
2022-08-03T16:27:24.000Z,10.61
2022-08-03T16:32:24.000Z,10.61
2022-08-03T16:37:24.000Z,11.23
2022-08-03T16:42:25.000Z,12.66
2022-08-03T16:47:24.000Z,12.07
2022-08-03T16:52:24.000Z,12.76
2022-08-03T16:57:25.000Z,12.32
2022-08-03T17:02:25.000Z,12.61
2022-08-03T17:07:25.000Z,14.48
2022-08-03T17:12:24.000Z,14.48
2022-08-03T17:17:24.000Z,13.75
2022-08-03T17:22:24.000Z,16.52
2022-08-03T17:27:24.000Z,15.29
2022-08-03T17:37:24.000Z,15.66
2022-08-03T17:52:24.000Z,15.84
2022-08-03T17:57:25.000Z,14.26
2022-08-03T18:02:25.000Z,13.4
2022-08-03T18:07:24.000Z,12.88
2022-08-03T18:12:25.000Z,13.51
2022-08-03T18:17:25.000Z,12.72
2022-08-03T18:22:24.000Z,12.72
2022-08-03T18:27:24.000Z,14.07
2022-08-03T18:32:25.000Z,14.02
2022-08-03T18:37:24.000Z,15.46
2022-08-03T18:42:24.000Z,14.46
2022-08-03T18:47:25.000Z,14.24
2022-08-03T21:22:24.000Z,24.84
2022-08-03T21:27:25.000Z,20.6
2022-08-03T21:32:24.000Z,20.6
2022-08-03T21:37:24.000Z,21.4
2022-08-03T21:42:25.000Z,23.46
2022-08-03T21:47:25.000Z,26.7
2022-08-03T21:52:24.000Z,24.97
2022-08-03T21:57:24.000Z,22.78
2022-08-03T22:02:24.000Z,20.22
2022-08-03T22:07:24.000Z,21.17
2022-08-03T22:12:25.000Z,19.84
2022-08-03T22:17:24.000Z,19.84
2022-08-03T22:22:25.000Z,20.4
2022-08-03T22:27:24.000Z,21.9
2022-08-03T22:32:24.000Z,22.51
2022-08-03T22:37:25.000Z,22.99
2022-08-03T22:42:24.000Z,23.31
2022-08-03T22:47:24.000Z,24.87
2022-08-03T22:52:24.000Z,24.7
2022-08-03T22:57:24.000Z,25.52
2022-08-03T23:02:25.000Z,26.27
2022-08-03T23:07:25.000Z,26.27
2022-08-03T23:12:24.000Z,26.69
2022-08-03T23:17:25.000Z,27.25
2022-08-03T23:22:24.000Z,27.9
2022-08-03T23:27:24.000Z,26.71
2022-08-03T23:32:24.000Z,26.55
2022-08-03T23:37:24.000Z,27.14
2022-08-03T23:42:25.000Z,26.1
2022-08-03T23:47:24.000Z,24.91
2022-08-03T23:52:25.000Z,25.12
2022-08-03T23:57:25.000Z,26.41
